Keighley, United Kingdom
Current Conditions -  °F | °C
As of 1:50 AM on Wednesday 26 Nov 2014 (Local Time) from EGNM Reporting Station
Broken Clouds Broken Clouds  
Wind Chill: 36°   Ceiling: 900
Heat Index: 41°   Visibility: 6mi
Dew Point: 39°   Wind: 7mph
Humidity: 93%   Direction: 40°NE
Pressure: 30.03"   Gusts: NA
Location:  53.87°N, 1.91°W
Report Text: EGNM 260150Z 04006KT 9999 BKN009 05/04 Q1017
Loading
Personal Weather Stations






























Interactive Weather Map New forecast layout! Learn more

10-Day Weather Forecast

Advertisements
Track Severe Weather on mobile